Thaani — HBY4477 — position and weather

sailwx.info

Track history (hours):
 
Tides and Currents Weather Stations Pressure Air Temp Water Temp Dewpoint Dewpoint Depression Visibility Wind Speed Wind Dir Waves Ship Positions

Thaani

Last reported at 2017-May-25 19:18 UTC. Time now 2017-May-29 09:38 UTC.
Position N 42°22' W 071°04'.

Length 14 m.

Type: Pleasure craft. MMSI: 269102970.

Date/timePositionNaut miles runAvg speedWind from/ knotsBaromVisibWave heightAir tempDewpointWater temp
2017-May-25 19:18N 42°22' W 071°04'0 0.0
2017-May-25 18:54N 42°22' W 071°04'0 0.0
2017-May-25 18:30N 42°22' W 071°04'2 3.7
2017-May-25 18:00N 42°21' W 071°02'3 6.4
2017-May-25 17:31N 42°20' W 070°57'3 6.2
2017-May-25 17:00N 42°19' W 070°53'4 7.1
2017-May-25 16:29N 42°18' W 070°49'  
2017-May-18 12:14N 41°27' W 071°22'2 6.2
2017-May-18 11:59N 41°28' W 071°21'  
Track history (hours):
 
Tides and Currents Weather Stations Pressure Air Temp Water Temp Dewpoint Dewpoint Depression Visibility Wind Speed Wind Dir Waves Ship Positions

Thaani

Last reported at 2017-May-25 19:18 UTC. Time now 2017-May-29 09:38 UTC.
Position N 42°22' W 071°04'.

Length 14 m.

Type: Pleasure craft. MMSI: 269102970.

Date/timePositionNaut miles runAvg speedWind from/ knotsBaromVisibWave heightAir tempDewpointWater temp
2017-May-25 19:18N 42°22' W 071°04'0 0.0
2017-May-25 18:54N 42°22' W 071°04'0 0.0
2017-May-25 18:30N 42°22' W 071°04'2 3.7
2017-May-25 18:00N 42°21' W 071°02'3 6.4
2017-May-25 17:31N 42°20' W 070°57'3 6.2
2017-May-25 17:00N 42°19' W 070°53'4 7.1
2017-May-25 16:29N 42°18' W 070°49'  
2017-May-18 12:14N 41°27' W 071°22'2 6.2
2017-May-18 11:59N 41°28' W 071°21'  

Dump ship's entire track history